sensor_id;sensor_type;location;lat;lon;timestamp;pressure;altitude;pressure_sealevel;temperature;humidity
44979;BME280;67464;52.438;-1.904;2023-02-03T00:00:52;101104.69;;;6.07;100.00
44979;BME280;67464;52.438;-1.904;2023-02-03T00:03:18;101111.11;;;5.98;100.00
44979;BME280;67464;52.438;-1.904;2023-02-03T00:05:44;101111.38;;;6.28;100.00
44979;BME280;67464;52.438;-1.904;2023-02-03T00:08:09;101113.85;;;6.55;100.00
44979;BME280;67464;52.438;-1.904;2023-02-03T00:10:36;101108.15;;;6.16;100.00
44979;BME280;67464;52.438;-1.904;2023-02-03T00:13:01;101102.54;;;6.56;100.00
44979;BME280;67464;52.438;-1.904;2023-02-03T00:15:26;101101.90;;;6.48;100.00
44979;BME280;67464;52.438;-1.904;2023-02-03T00:17:52;101112.94;;;6.91;100.00
44979;BME280;67464;52.438;-1.904;2023-02-03T00:20:18;101118.00;;;6.79;100.00
44979;BME280;67464;52.438;-1.904;2023-02-03T00:22:44;101117.42;;;6.68;100.00
44979;BME280;67464;52.438;-1.904;2023-02-03T00:25:09;101120.78;;;6.32;100.00
44979;BME280;67464;52.438;-1.904;2023-02-03T00:27:35;101122.43;;;6.21;100.00
44979;BME280;67464;52.438;-1.904;2023-02-03T00:30:01;101123.56;;;6.38;100.00
44979;BME280;67464;52.438;-1.904;2023-02-03T00:32:26;101131.08;;;5.99;100.00
44979;BME280;67464;52.438;-1.904;2023-02-03T00:34:52;101136.40;;;5.71;100.00
44979;BME280;67464;52.438;-1.904;2023-02-03T00:37:18;101135.39;;;5.96;100.00
44979;BME280;67464;52.438;-1.904;2023-02-03T00:39:43;101126.00;;;6.06;100.00
44979;BME280;67464;52.438;-1.904;2023-02-03T00:42:09;101122.58;;;5.66;100.00
44979;BME280;67464;52.438;-1.904;2023-02-03T00:44:35;101124.42;;;5.72;100.00
44979;BME280;67464;52.438;-1.904;2023-02-03T00:47:01;101121.16;;;5.55;100.00
44979;BME280;67464;52.438;-1.904;2023-02-03T00:49:26;101118.98;;;5.68;100.00
44979;BME280;67464;52.438;-1.904;2023-02-03T00:51:52;101116.55;;;6.09;100.00
44979;BME280;67464;52.438;-1.904;2023-02-03T00:54:18;101118.81;;;5.87;100.00
44979;BME280;67464;52.438;-1.904;2023-02-03T00:56:43;101132.51;;;5.79;100.00
44979;BME280;67464;52.438;-1.904;2023-02-03T00:59:09;101133.07;;;6.27;100.00
44979;BME280;67464;52.438;-1.904;2023-02-03T01:01:35;101130.87;;;5.99;100.00
44979;BME280;67464;52.438;-1.904;2023-02-03T01:04:01;101129.74;;;6.06;100.00
44979;BME280;67464;52.438;-1.904;2023-02-03T01:06:26;101135.24;;;5.59;100.00
44979;BME280;67464;52.438;-1.904;2023-02-03T01:08:53;101144.53;;;5.28;100.00
44979;BME280;67464;52.438;-1.904;2023-02-03T01:11:19;101149.20;;;5.51;100.00
44979;BME280;67464;52.438;-1.904;2023-02-03T01:13:44;101140.52;;;5.89;100.00
44979;BME280;67464;52.438;-1.904;2023-02-03T01:16:11;101138.86;;;5.76;100.00
44979;BME280;67464;52.438;-1.904;2023-02-03T01:18:35;101132.17;;;5.20;100.00
44979;BME280;67464;52.438;-1.904;2023-02-03T01:21:04;101120.52;;;5.81;100.00
44979;BME280;67464;52.438;-1.904;2023-02-03T01:23:26;101117.79;;;5.41;100.00
44979;BME280;67464;52.438;-1.904;2023-02-03T01:25:52;101121.10;;;6.03;100.00
44979;BME280;67464;52.438;-1.904;2023-02-03T01:28:17;101138.02;;;5.86;100.00
44979;BME280;67464;52.438;-1.904;2023-02-03T01:30:43;101145.24;;;5.70;100.00
44979;BME280;67464;52.438;-1.904;2023-02-03T01:33:09;101147.75;;;5.76;100.00
44979;BME280;67464;52.438;-1.904;2023-02-03T01:35:34;101146.64;;;6.08;100.00
44979;BME280;67464;52.438;-1.904;2023-02-03T01:38:00;101149.11;;;6.65;100.00
44979;BME280;67464;52.438;-1.904;2023-02-03T01:40:26;101148.16;;;6.59;100.00
44979;BME280;67464;52.438;-1.904;2023-02-03T01:42:51;101146.19;;;6.34;100.00
44979;BME280;67464;52.438;-1.904;2023-02-03T01:45:18;101147.71;;;6.40;100.00
44979;BME280;67464;52.438;-1.904;2023-02-03T01:47:46;101148.00;;;6.07;100.00
44979;BME280;67464;52.438;-1.904;2023-02-03T01:50:12;101144.85;;;7.17;100.00
44979;BME280;67464;52.438;-1.904;2023-02-03T01:52:35;101152.16;;;6.98;100.00
44979;BME280;67464;52.438;-1.904;2023-02-03T01:55:02;101147.57;;;7.28;100.00
44979;BME280;67464;52.438;-1.904;2023-02-03T01:57:30;101145.59;;;6.82;100.00
44979;BME280;67464;52.438;-1.904;2023-02-03T01:59:52;101134.95;;;6.20;100.00
44979;BME280;67464;52.438;-1.904;2023-02-03T02:02:17;101139.61;;;6.53;100.00
44979;BME280;67464;52.438;-1.904;2023-02-03T02:04:49;101136.97;;;6.35;100.00
44979;BME280;67464;52.438;-1.904;2023-02-03T02:07:08;101138.55;;;6.41;100.00
44979;BME280;67464;52.438;-1.904;2023-02-03T02:09:34;101146.17;;;6.84;100.00
44979;BME280;67464;52.438;-1.904;2023-02-03T02:12:00;101150.43;;;7.17;100.00
44979;BME280;67464;52.438;-1.904;2023-02-03T02:14:25;101153.54;;;7.97;100.00
44979;BME280;67464;52.438;-1.904;2023-02-03T02:16:54;101152.58;;;7.80;100.00
44979;BME280;67464;52.438;-1.904;2023-02-03T02:21:51;101155.86;;;7.05;100.00
44979;BME280;67464;52.438;-1.904;2023-02-03T02:26:51;101149.48;;;6.90;100.00
44979;BME280;67464;52.438;-1.904;2023-02-03T02:29:11;101153.86;;;7.74;100.00
44979;BME280;67464;52.438;-1.904;2023-02-03T02:31:38;101147.86;;;6.58;100.00
44979;BME280;67464;52.438;-1.904;2023-02-03T02:33:55;101144.64;;;7.09;100.00
44979;BME280;67464;52.438;-1.904;2023-02-03T02:36:24;101149.43;;;6.81;100.00
44979;BME280;67464;52.438;-1.904;2023-02-03T02:38:48;101154.27;;;6.62;100.00
44979;BME280;67464;52.438;-1.904;2023-02-03T02:41:12;101153.34;;;6.65;100.00
44979;BME280;67464;52.438;-1.904;2023-02-03T02:43:39;101153.40;;;6.73;100.00
44979;BME280;67464;52.438;-1.904;2023-02-03T02:46:03;101150.98;;;6.39;100.00
44979;BME280;67464;52.438;-1.904;2023-02-03T02:48:28;101146.32;;;6.54;100.00
44979;BME280;67464;52.438;-1.904;2023-02-03T02:50:52;101148.02;;;6.42;100.00
44979;BME280;67464;52.438;-1.904;2023-02-03T02:53:16;101152.78;;;6.20;100.00
44979;BME280;67464;52.438;-1.904;2023-02-03T02:55:43;101161.03;;;6.13;100.00
44979;BME280;67464;52.438;-1.904;2023-02-03T02:58:10;101167.33;;;6.08;100.00
44979;BME280;67464;52.438;-1.904;2023-02-03T03:00:34;101163.95;;;6.03;100.00
44979;BME280;67464;52.438;-1.904;2023-02-03T03:03:11;101162.26;;;6.70;100.00
44979;BME280;67464;52.438;-1.904;2023-02-03T03:05:25;101158.17;;;6.57;100.00
44979;BME280;67464;52.438;-1.904;2023-02-03T03:07:55;101161.09;;;6.43;100.00
44979;BME280;67464;52.438;-1.904;2023-02-03T03:10:20;101164.25;;;6.97;100.00
44979;BME280;67464;52.438;-1.904;2023-02-03T03:12:45;101165.69;;;6.74;100.00
44979;BME280;67464;52.438;-1.904;2023-02-03T03:15:10;101163.42;;;6.74;100.00
44979;BME280;67464;52.438;-1.904;2023-02-03T03:17:36;101161.83;;;6.76;100.00
44979;BME280;67464;52.438;-1.904;2023-02-03T03:20:01;101167.20;;;7.12;100.00
44979;BME280;67464;52.438;-1.904;2023-02-03T03:22:28;101170.19;;;7.16;100.00
44979;BME280;67464;52.438;-1.904;2023-02-03T03:24:54;101168.76;;;7.32;100.00
44979;BME280;67464;52.438;-1.904;2023-02-03T03:27:17;101177.82;;;7.18;100.00
44979;BME280;67464;52.438;-1.904;2023-02-03T03:29:42;101181.57;;;6.80;100.00
44979;BME280;67464;52.438;-1.904;2023-02-03T03:32:07;101187.25;;;6.92;100.00
44979;BME280;67464;52.438;-1.904;2023-02-03T03:34:32;101179.16;;;6.80;100.00
44979;BME280;67464;52.438;-1.904;2023-02-03T03:37:04;101167.76;;;7.01;100.00
44979;BME280;67464;52.438;-1.904;2023-02-03T03:39:27;101155.93;;;6.88;100.00
44979;BME280;67464;52.438;-1.904;2023-02-03T03:41:56;101157.78;;;7.07;100.00
44979;BME280;67464;52.438;-1.904;2023-02-03T03:44:15;101158.96;;;6.70;100.00
44979;BME280;67464;52.438;-1.904;2023-02-03T03:46:43;101152.15;;;6.83;100.00
44979;BME280;67464;52.438;-1.904;2023-02-03T03:49:07;101162.91;;;6.67;100.00
44979;BME280;67464;52.438;-1.904;2023-02-03T03:51:35;101167.17;;;6.56;100.00
44979;BME280;67464;52.438;-1.904;2023-02-03T03:54:02;101172.28;;;6.39;100.00
44979;BME280;67464;52.438;-1.904;2023-02-03T03:56:26;101172.30;;;6.11;100.00
44979;BME280;67464;52.438;-1.904;2023-02-03T03:58:49;101172.22;;;6.36;100.00
44979;BME280;67464;52.438;-1.904;2023-02-03T04:01:15;101177.24;;;6.34;100.00
44979;BME280;67464;52.438;-1.904;2023-02-03T04:03:43;101175.25;;;7.34;100.00
44979;BME280;67464;52.438;-1.904;2023-02-03T04:06:06;101176.34;;;7.11;100.00
44979;BME280;67464;52.438;-1.904;2023-02-03T04:08:31;101187.16;;;6.92;100.00
44979;BME280;67464;52.438;-1.904;2023-02-03T04:10:57;101193.14;;;6.35;100.00
44979;BME280;67464;52.438;-1.904;2023-02-03T04:13:22;101202.32;;;6.12;100.00
44979;BME280;67464;52.438;-1.904;2023-02-03T04:15:48;101207.92;;;6.93;100.00
44979;BME280;67464;52.438;-1.904;2023-02-03T04:18:14;101199.34;;;6.55;100.00
44979;BME280;67464;52.438;-1.904;2023-02-03T04:20:39;101193.25;;;6.73;100.00
44979;BME280;67464;52.438;-1.904;2023-02-03T04:23:05;101187.60;;;6.91;100.00
44979;BME280;67464;52.438;-1.904;2023-02-03T04:25:31;101194.28;;;6.02;100.00
44979;BME280;67464;52.438;-1.904;2023-02-03T04:27:56;101192.33;;;6.45;100.00
44979;BME280;67464;52.438;-1.904;2023-02-03T04:30:22;101201.40;;;6.50;100.00
44979;BME280;67464;52.438;-1.904;2023-02-03T04:32:48;101210.14;;;6.28;100.00
44979;BME280;67464;52.438;-1.904;2023-02-03T04:35:14;101205.37;;;5.94;100.00
44979;BME280;67464;52.438;-1.904;2023-02-03T04:37:39;101207.57;;;5.60;100.00
44979;BME280;67464;52.438;-1.904;2023-02-03T04:40:06;101218.56;;;6.34;100.00
44979;BME280;67464;52.438;-1.904;2023-02-03T04:42:30;101217.86;;;6.63;100.00
44979;BME280;67464;52.438;-1.904;2023-02-03T04:44:56;101224.33;;;6.69;100.00
44979;BME280;67464;52.438;-1.904;2023-02-03T04:47:22;101231.43;;;6.49;100.00
44979;BME280;67464;52.438;-1.904;2023-02-03T04:49:47;101234.95;;;6.36;100.00
44979;BME280;67464;52.438;-1.904;2023-02-03T04:52:13;101231.66;;;6.02;100.00
44979;BME280;67464;52.438;-1.904;2023-02-03T04:54:39;101244.39;;;5.91;100.00
44979;BME280;67464;52.438;-1.904;2023-02-03T04:57:05;101243.31;;;6.48;100.00
44979;BME280;67464;52.438;-1.904;2023-02-03T04:59:30;101237.00;;;6.75;100.00
44979;BME280;67464;52.438;-1.904;2023-02-03T05:01:56;101235.55;;;6.74;100.00
44979;BME280;67464;52.438;-1.904;2023-02-03T05:04:22;101233.79;;;6.85;100.00
44979;BME280;67464;52.438;-1.904;2023-02-03T05:06:47;101235.13;;;6.96;100.00
44979;BME280;67464;52.438;-1.904;2023-02-03T05:09:12;101229.41;;;6.09;100.00
44979;BME280;67464;52.438;-1.904;2023-02-03T05:11:38;101227.08;;;6.75;100.00
44979;BME280;67464;52.438;-1.904;2023-02-03T05:14:04;101235.00;;;6.58;100.00
44979;BME280;67464;52.438;-1.904;2023-02-03T05:16:30;101235.32;;;6.91;100.00
44979;BME280;67464;52.438;-1.904;2023-02-03T05:18:55;101239.80;;;6.63;100.00
44979;BME280;67464;52.438;-1.904;2023-02-03T05:21:20;101236.80;;;6.73;100.00
44979;BME280;67464;52.438;-1.904;2023-02-03T05:23:46;101240.25;;;6.91;100.00
44979;BME280;67464;52.438;-1.904;2023-02-03T05:26:12;101242.59;;;7.31;100.00
44979;BME280;67464;52.438;-1.904;2023-02-03T05:28:38;101242.06;;;7.25;100.00
44979;BME280;67464;52.438;-1.904;2023-02-03T05:31:04;101237.55;;;7.20;100.00
44979;BME280;67464;52.438;-1.904;2023-02-03T05:33:29;101241.12;;;6.93;100.00
44979;BME280;67464;52.438;-1.904;2023-02-03T05:35:55;101243.05;;;6.17;100.00
44979;BME280;67464;52.438;-1.904;2023-02-03T05:38:21;101247.38;;;6.08;100.00
44979;BME280;67464;52.438;-1.904;2023-02-03T05:40:46;101248.45;;;6.49;100.00
44979;BME280;67464;52.438;-1.904;2023-02-03T05:43:12;101247.16;;;6.89;100.00
44979;BME280;67464;52.438;-1.904;2023-02-03T05:45:37;101246.85;;;7.02;100.00
44979;BME280;67464;52.438;-1.904;2023-02-03T05:48:03;101245.27;;;6.88;100.00
44979;BME280;67464;52.438;-1.904;2023-02-03T05:50:29;101247.56;;;6.78;100.00
44979;BME280;67464;52.438;-1.904;2023-02-03T05:52:54;101251.88;;;6.33;100.00
44979;BME280;67464;52.438;-1.904;2023-02-03T05:55:20;101253.34;;;6.73;100.00
44979;BME280;67464;52.438;-1.904;2023-02-03T05:57:46;101253.88;;;6.48;100.00
44979;BME280;67464;52.438;-1.904;2023-02-03T06:00:12;101264.37;;;6.52;100.00
44979;BME280;67464;52.438;-1.904;2023-02-03T06:02:37;101266.39;;;6.45;100.00
44979;BME280;67464;52.438;-1.904;2023-02-03T06:05:03;101266.64;;;7.33;100.00
44979;BME280;67464;52.438;-1.904;2023-02-03T06:07:29;101277.01;;;7.33;100.00
44979;BME280;67464;52.438;-1.904;2023-02-03T06:09:54;101282.90;;;6.57;100.00
44979;BME280;67464;52.438;-1.904;2023-02-03T06:12:19;101295.69;;;6.41;100.00
44979;BME280;67464;52.438;-1.904;2023-02-03T06:14:45;101303.74;;;6.10;100.00
44979;BME280;67464;52.438;-1.904;2023-02-03T06:17:11;101306.51;;;6.47;100.00
44979;BME280;67464;52.438;-1.904;2023-02-03T06:19:36;101310.51;;;6.91;100.00
44979;BME280;67464;52.438;-1.904;2023-02-03T06:22:02;101315.06;;;7.01;100.00
44979;BME280;67464;52.438;-1.904;2023-02-03T06:24:27;101318.90;;;7.33;100.00
44979;BME280;67464;52.438;-1.904;2023-02-03T06:26:53;101313.67;;;7.94;100.00
44979;BME280;67464;52.438;-1.904;2023-02-03T06:29:19;101313.88;;;7.79;100.00
44979;BME280;67464;52.438;-1.904;2023-02-03T06:31:45;101320.02;;;8.36;100.00
44979;BME280;67464;52.438;-1.904;2023-02-03T06:34:11;101314.07;;;7.37;100.00
44979;BME280;67464;52.438;-1.904;2023-02-03T06:36:36;101317.88;;;7.81;100.00
44979;BME280;67464;52.438;-1.904;2023-02-03T06:39:02;101318.64;;;7.13;100.00
44979;BME280;67464;52.438;-1.904;2023-02-03T06:41:27;101323.30;;;6.93;100.00
44979;BME280;67464;52.438;-1.904;2023-02-03T06:43:53;101319.66;;;6.62;100.00
44979;BME280;67464;52.438;-1.904;2023-02-03T06:46:18;101320.71;;;6.63;100.00
44979;BME280;67464;52.438;-1.904;2023-02-03T06:48:44;101315.11;;;6.23;100.00
44979;BME280;67464;52.438;-1.904;2023-02-03T06:51:10;101317.69;;;6.28;100.00
44979;BME280;67464;52.438;-1.904;2023-02-03T06:53:36;101317.72;;;7.01;100.00
44979;BME280;67464;52.438;-1.904;2023-02-03T06:56:02;101321.70;;;6.18;100.00
44979;BME280;67464;52.438;-1.904;2023-02-03T06:58:27;101317.01;;;6.05;100.00
44979;BME280;67464;52.438;-1.904;2023-02-03T07:00:54;101333.98;;;6.11;100.00
44979;BME280;67464;52.438;-1.904;2023-02-03T07:03:18;101342.25;;;6.39;100.00
44979;BME280;67464;52.438;-1.904;2023-02-03T07:05:44;101341.84;;;5.98;100.00
44979;BME280;67464;52.438;-1.904;2023-02-03T07:08:10;101338.05;;;6.33;100.00
44979;BME280;67464;52.438;-1.904;2023-02-03T07:10:35;101340.31;;;6.57;100.00
44979;BME280;67464;52.438;-1.904;2023-02-03T07:13:02;101338.85;;;6.58;100.00
44979;BME280;67464;52.438;-1.904;2023-02-03T07:15:27;101335.55;;;6.10;100.00
44979;BME280;67464;52.438;-1.904;2023-02-03T07:17:53;101336.32;;;6.30;100.00
44979;BME280;67464;52.438;-1.904;2023-02-03T07:20:20;101340.54;;;6.16;100.00
44979;BME280;67464;52.438;-1.904;2023-02-03T07:22:44;101341.33;;;6.28;100.00
44979;BME280;67464;52.438;-1.904;2023-02-03T07:25:10;101339.60;;;6.15;100.00
44979;BME280;67464;52.438;-1.904;2023-02-03T07:27:36;101337.12;;;6.42;100.00
44979;BME280;67464;52.438;-1.904;2023-02-03T07:30:02;101336.75;;;6.45;100.00
44979;BME280;67464;52.438;-1.904;2023-02-03T07:32:27;101333.66;;;6.41;100.00
44979;BME280;67464;52.438;-1.904;2023-02-03T07:34:52;101332.24;;;6.24;100.00
44979;BME280;67464;52.438;-1.904;2023-02-03T07:37:18;101337.06;;;6.25;100.00
44979;BME280;67464;52.438;-1.904;2023-02-03T07:39:44;101333.95;;;6.41;100.00
44979;BME280;67464;52.438;-1.904;2023-02-03T07:42:09;101337.95;;;6.82;100.00
44979;BME280;67464;52.438;-1.904;2023-02-03T07:44:35;101340.69;;;6.47;100.00
44979;BME280;67464;52.438;-1.904;2023-02-03T07:47:01;101341.46;;;6.97;100.00
44979;BME280;67464;52.438;-1.904;2023-02-03T07:49:27;101349.34;;;6.35;100.00
44979;BME280;67464;52.438;-1.904;2023-02-03T07:51:53;101352.23;;;6.27;100.00
44979;BME280;67464;52.438;-1.904;2023-02-03T07:54:18;101354.18;;;6.40;100.00
44979;BME280;67464;52.438;-1.904;2023-02-03T07:56:44;101356.43;;;5.49;100.00
44979;BME280;67464;52.438;-1.904;2023-02-03T07:59:10;101361.22;;;6.21;100.00
44979;BME280;67464;52.438;-1.904;2023-02-03T08:01:36;101363.94;;;6.36;100.00
44979;BME280;67464;52.438;-1.904;2023-02-03T08:04:01;101365.37;;;5.95;100.00
44979;BME280;67464;52.438;-1.904;2023-02-03T08:06:27;101368.91;;;7.07;100.00
44979;BME280;67464;52.438;-1.904;2023-02-03T08:08:53;101372.77;;;6.59;100.00
44979;BME280;67464;52.438;-1.904;2023-02-03T08:11:19;101368.96;;;7.58;100.00
44979;BME280;67464;52.438;-1.904;2023-02-03T08:13:44;101368.79;;;7.46;100.00
44979;BME280;67464;52.438;-1.904;2023-02-03T08:16:10;101377.22;;;7.93;100.00
44979;BME280;67464;52.438;-1.904;2023-02-03T08:18:35;101381.44;;;7.60;100.00
44979;BME280;67464;52.438;-1.904;2023-02-03T08:21:01;101388.33;;;9.06;100.00
44979;BME280;67464;52.438;-1.904;2023-02-03T08:23:27;101393.78;;;8.95;100.00
44979;BME280;67464;52.438;-1.904;2023-02-03T08:25:53;101397.45;;;9.04;96.25
44979;BME280;67464;52.438;-1.904;2023-02-03T08:28:19;101407.54;;;9.07;97.46
44979;BME280;67464;52.438;-1.904;2023-02-03T08:30:44;101408.44;;;8.95;100.00
44979;BME280;67464;52.438;-1.904;2023-02-03T08:33:10;101405.35;;;8.40;100.00
44979;BME280;67464;52.438;-1.904;2023-02-03T08:35:35;101411.20;;;8.52;100.00
44979;BME280;67464;52.438;-1.904;2023-02-03T08:38:01;101412.89;;;7.74;100.00
44979;BME280;67464;52.438;-1.904;2023-02-03T08:40:27;101423.96;;;7.75;100.00
44979;BME280;67464;52.438;-1.904;2023-02-03T08:42:53;101425.80;;;7.84;100.00
44979;BME280;67464;52.438;-1.904;2023-02-03T08:45:18;101434.03;;;7.12;100.00
44979;BME280;67464;52.438;-1.904;2023-02-03T08:47:44;101441.35;;;6.66;100.00
44979;BME280;67464;52.438;-1.904;2023-02-03T08:50:10;101438.25;;;6.82;100.00
44979;BME280;67464;52.438;-1.904;2023-02-03T08:52:35;101438.87;;;6.72;100.00
44979;BME280;67464;52.438;-1.904;2023-02-03T08:55:01;101442.77;;;5.77;100.00
44979;BME280;67464;52.438;-1.904;2023-02-03T08:57:31;101443.71;;;5.80;100.00
44979;BME280;67464;52.438;-1.904;2023-02-03T08:59:53;101438.24;;;6.06;100.00
44979;BME280;67464;52.438;-1.904;2023-02-03T09:02:18;101441.88;;;6.72;100.00
44979;BME280;67464;52.438;-1.904;2023-02-03T09:04:44;101445.52;;;7.15;100.00
44979;BME280;67464;52.438;-1.904;2023-02-03T09:07:09;101442.18;;;7.82;100.00
44979;BME280;67464;52.438;-1.904;2023-02-03T09:09:35;101443.58;;;7.46;100.00
44979;BME280;67464;52.438;-1.904;2023-02-03T09:12:01;101444.46;;;7.45;100.00
44979;BME280;67464;52.438;-1.904;2023-02-03T09:14:28;101446.09;;;7.36;100.00
44979;BME280;67464;52.438;-1.904;2023-02-03T09:16:52;101446.61;;;7.47;100.00
44979;BME280;67464;52.438;-1.904;2023-02-03T09:19:18;101443.13;;;8.46;100.00
44979;BME280;67464;52.438;-1.904;2023-02-03T09:21:44;101445.89;;;7.47;100.00
44979;BME280;67464;52.438;-1.904;2023-02-03T09:24:09;101443.94;;;8.22;100.00
44979;BME280;67464;52.438;-1.904;2023-02-03T09:26:35;101446.05;;;8.44;100.00
44979;BME280;67464;52.438;-1.904;2023-02-03T09:29:01;101450.60;;;8.31;100.00
44979;BME280;67464;52.438;-1.904;2023-02-03T09:31:26;101460.21;;;8.99;100.00
44979;BME280;67464;52.438;-1.904;2023-02-03T09:33:52;101461.88;;;10.06;100.00
44979;BME280;67464;52.438;-1.904;2023-02-03T09:36:18;101465.36;;;8.98;100.00
44979;BME280;67464;52.438;-1.904;2023-02-03T09:38:43;101464.57;;;9.62;100.00
44979;BME280;67464;52.438;-1.904;2023-02-03T09:41:18;101468.06;;;9.95;100.00
44979;BME280;67464;52.438;-1.904;2023-02-03T09:43:37;101475.66;;;9.01;100.00
44979;BME280;67464;52.438;-1.904;2023-02-03T09:46:02;101474.60;;;8.73;100.00
44979;BME280;67464;52.438;-1.904;2023-02-03T09:48:31;101480.59;;;9.23;100.00
44979;BME280;67464;52.438;-1.904;2023-02-03T09:50:51;101484.74;;;9.17;100.00
44979;BME280;67464;52.438;-1.904;2023-02-03T09:53:25;101487.57;;;9.26;100.00
44979;BME280;67464;52.438;-1.904;2023-02-03T09:55:43;101485.68;;;10.15;96.66
44979;BME280;67464;52.438;-1.904;2023-02-03T09:58:10;101490.97;;;9.70;98.71
44979;BME280;67464;52.438;-1.904;2023-02-03T10:00:36;101487.49;;;10.85;92.57
44979;BME280;67464;52.438;-1.904;2023-02-03T10:03:05;101496.67;;;10.29;94.76
44979;BME280;67464;52.438;-1.904;2023-02-03T10:05:34;101506.72;;;9.99;98.74
44979;BME280;67464;52.438;-1.904;2023-02-03T10:07:59;101511.92;;;10.43;96.39
44979;BME280;67464;52.438;-1.904;2023-02-03T10:10:20;101521.93;;;10.15;95.96
44979;BME280;67464;52.438;-1.904;2023-02-03T10:12:49;101527.47;;;9.72;99.69
44979;BME280;67464;52.438;-1.904;2023-02-03T10:15:20;101531.03;;;9.74;100.00
44979;BME280;67464;52.438;-1.904;2023-02-03T10:17:37;101529.93;;;10.25;92.90
44979;BME280;67464;52.438;-1.904;2023-02-03T10:20:03;101527.53;;;10.62;89.57
44979;BME280;67464;52.438;-1.904;2023-02-03T10:22:26;101538.29;;;10.16;93.57
44979;BME280;67464;52.438;-1.904;2023-02-03T10:24:52;101539.32;;;10.45;92.80
44979;BME280;67464;52.438;-1.904;2023-02-03T10:27:18;101540.64;;;11.42;83.92
44979;BME280;67464;52.438;-1.904;2023-02-03T10:29:42;101544.96;;;11.41;84.47
44979;BME280;67464;52.438;-1.904;2023-02-03T10:32:08;101544.60;;;12.16;79.26
44979;BME280;67464;52.438;-1.904;2023-02-03T10:34:32;101540.93;;;13.15;72.12
44979;BME280;67464;52.438;-1.904;2023-02-03T10:37:01;101543.62;;;12.75;73.31
44979;BME280;67464;52.438;-1.904;2023-02-03T10:39:30;101545.06;;;13.53;68.73
44979;BME280;67464;52.438;-1.904;2023-02-03T10:41:49;101542.42;;;12.80;68.29
44979;BME280;67464;52.438;-1.904;2023-02-03T10:44:14;101547.43;;;12.51;72.36
44979;BME280;67464;52.438;-1.904;2023-02-03T10:46:40;101548.07;;;12.80;71.33
44979;BME280;67464;52.438;-1.904;2023-02-03T10:49:05;101545.57;;;13.24;69.44
44979;BME280;67464;52.438;-1.904;2023-02-03T10:51:36;101549.24;;;12.65;75.42
44979;BME280;67464;52.438;-1.904;2023-02-03T10:53:56;101545.01;;;12.21;79.35
44979;BME280;67464;52.438;-1.904;2023-02-03T10:56:24;101541.62;;;12.71;73.16
44979;BME280;67464;52.438;-1.904;2023-02-03T10:58:49;101540.18;;;13.25;69.17
44979;BME280;67464;52.438;-1.904;2023-02-03T11:01:14;101550.33;;;13.39;64.84
44979;BME280;67464;52.438;-1.904;2023-02-03T11:03:41;101559.09;;;14.32;60.99
44979;BME280;67464;52.438;-1.904;2023-02-03T11:06:07;101566.35;;;13.46;64.28
44979;BME280;67464;52.438;-1.904;2023-02-03T11:08:30;101565.05;;;15.81;55.86
44979;BME280;67464;52.438;-1.904;2023-02-03T11:11:01;101562.52;;;16.14;51.40
44979;BME280;67464;52.438;-1.904;2023-02-03T11:13:22;101557.81;;;15.54;54.39
44979;BME280;67464;52.438;-1.904;2023-02-03T11:15:52;101557.67;;;15.91;52.56
44979;BME280;67464;52.438;-1.904;2023-02-03T11:18:29;101553.66;;;15.59;52.87
44979;BME280;67464;52.438;-1.904;2023-02-03T11:20:36;101560.90;;;14.37;56.85
44979;BME280;67464;52.438;-1.904;2023-02-03T11:23:03;101559.56;;;13.12;64.44
44979;BME280;67464;52.438;-1.904;2023-02-03T11:25:31;101561.59;;;12.96;69.34
44979;BME280;67464;52.438;-1.904;2023-02-03T11:27:53;101565.60;;;12.61;71.39
44979;BME280;67464;52.438;-1.904;2023-02-03T11:30:23;101564.70;;;12.49;70.41
44979;BME280;67464;52.438;-1.904;2023-02-03T11:32:46;101567.38;;;12.97;72.57
44979;BME280;67464;52.438;-1.904;2023-02-03T11:35:15;101568.37;;;13.12;68.66
44979;BME280;67464;52.438;-1.904;2023-02-03T11:37:46;101577.44;;;13.77;64.62
44979;BME280;67464;52.438;-1.904;2023-02-03T11:40:12;101580.20;;;13.54;65.05
44979;BME280;67464;52.438;-1.904;2023-02-03T11:42:25;101582.43;;;14.18;63.15
44979;BME280;67464;52.438;-1.904;2023-02-03T11:44:53;101587.18;;;13.76;63.56
44979;BME280;67464;52.438;-1.904;2023-02-03T11:47:17;101589.35;;;13.77;63.39
44979;BME280;67464;52.438;-1.904;2023-02-03T11:49:56;101587.58;;;14.84;60.99
44979;BME280;67464;52.438;-1.904;2023-02-03T11:52:21;101587.01;;;15.25;55.00
44979;BME280;67464;52.438;-1.904;2023-02-03T11:54:39;101589.82;;;15.43;54.33
44979;BME280;67464;52.438;-1.904;2023-02-03T11:57:08;101591.79;;;16.66;51.03
44979;BME280;67464;52.438;-1.904;2023-02-03T11:59:35;101590.10;;;15.59;53.39
44979;BME280;67464;52.438;-1.904;2023-02-03T12:02:01;101594.82;;;15.93;52.13
44979;BME280;67464;52.438;-1.904;2023-02-03T12:04:27;101596.49;;;14.86;53.17
44979;BME280;67464;52.438;-1.904;2023-02-03T12:06:52;101591.96;;;14.37;54.22
44979;BME280;67464;52.438;-1.904;2023-02-03T12:09:16;101586.87;;;16.28;51.56
44979;BME280;67464;52.438;-1.904;2023-02-03T12:11:42;101587.19;;;15.48;50.45
44979;BME280;67464;52.438;-1.904;2023-02-03T12:14:12;101586.83;;;15.64;51.26
44979;BME280;67464;52.438;-1.904;2023-02-03T12:16:40;101599.38;;;15.96;49.29
44979;BME280;67464;52.438;-1.904;2023-02-03T12:18:56;101598.32;;;16.39;49.25
44979;BME280;67464;52.438;-1.904;2023-02-03T12:23:47;101602.95;;;16.75;47.51
44979;BME280;67464;52.438;-1.904;2023-02-03T12:26:13;101603.08;;;15.64;50.79
44979;BME280;67464;52.438;-1.904;2023-02-03T12:28:40;101605.05;;;16.09;50.80
44979;BME280;67464;52.438;-1.904;2023-02-03T12:30:59;101603.07;;;16.00;47.93
44979;BME280;67464;52.438;-1.904;2023-02-03T12:33:23;101601.64;;;15.83;49.39
44979;BME280;67464;52.438;-1.904;2023-02-03T12:35:49;101602.50;;;15.60;49.76
44979;BME280;67464;52.438;-1.904;2023-02-03T12:38:13;101602.62;;;15.94;49.35